createdAt,value
2022-12-04T00:06:25.889Z,100476
2022-12-04T00:13:01.861Z,100473
2022-12-04T02:29:28.199Z,100453
2022-12-04T02:55:19.605Z,100456
2022-12-04T03:08:50.998Z,100460
2022-12-04T03:14:59.943Z,100458
2022-12-04T03:21:06.462Z,100463
2022-12-04T03:27:17.219Z,100468
2022-12-04T03:33:50.744Z,100469
2022-12-04T03:39:55.284Z,100465
2022-12-04T03:46:00.311Z,100467
2022-12-04T03:58:45.655Z,100456
2022-12-04T04:11:43.573Z,100461
2022-12-04T04:17:53.953Z,100452
2022-12-04T04:24:20.674Z,100450
2022-12-04T04:43:39.260Z,100448
2022-12-04T05:02:03.540Z,100442
2022-12-04T05:08:00.787Z,100445
2022-12-04T05:14:02.177Z,100448
2022-12-04T05:20:10.833Z,100439
2022-12-04T05:26:49.949Z,100438
2022-12-04T05:45:17.475Z,100439
2022-12-04T05:51:42.761Z,100437
2022-12-04T05:57:36.341Z,100433
2022-12-04T06:03:52.404Z,100439
2022-12-04T06:09:46.146Z,100435
2022-12-04T06:22:04.863Z,100451
2022-12-04T06:28:09.658Z,100459
2022-12-04T06:34:26.227Z,100463
2022-12-04T06:40:33.685Z,100461
2022-12-04T06:46:34.406Z,100460
2022-12-04T06:52:55.760Z,100474
2022-12-04T06:59:37.113Z,100476
2022-12-04T07:12:21.272Z,100477
2022-12-04T07:24:45.588Z,100473
2022-12-04T07:30:38.154Z,100474
2022-12-04T07:42:35.870Z,100471
2022-12-04T07:48:50.441Z,100481
2022-12-04T08:00:58.867Z,100470
2022-12-04T08:06:54.863Z,100468
2022-12-04T08:12:52.671Z,100471
2022-12-04T08:18:44.827Z,100473
2022-12-04T08:24:48.700Z,100473
2022-12-04T08:30:45.487Z,100466
2022-12-04T08:36:51.745Z,100469
2022-12-04T08:42:58.271Z,100475
2022-12-04T08:48:52.873Z,100475
2022-12-04T10:18:41.430Z,100455
2022-12-04T10:25:03.671Z,100452
2022-12-04T10:31:22.170Z,100446
2022-12-04T10:37:41.771Z,100433
2022-12-04T10:43:45.130Z,100434
2022-12-04T10:56:40.935Z,100431
2022-12-04T11:02:42.003Z,100422
2022-12-04T11:09:07.757Z,100414
2022-12-04T11:15:15.559Z,100410
2022-12-04T11:21:22.597Z,100404
2022-12-04T11:27:32.359Z,100390
2022-12-04T11:40:06.305Z,100397
2022-12-04T11:46:01.239Z,100397
2022-12-04T11:52:06.263Z,100392
2022-12-04T12:32:25.044Z,100371
2022-12-04T12:38:39.048Z,100371
2022-12-04T13:04:16.262Z,100356
2022-12-04T13:10:10.746Z,100352
2022-12-04T13:16:20.522Z,100342
2022-12-04T13:23:19.892Z,100340
2022-12-04T13:30:04.158Z,100355
2022-12-04T13:36:40.477Z,100361
2022-12-04T13:43:23.334Z,100355
2022-12-04T14:02:53.160Z,100333
2022-12-04T14:55:03.163Z,100324
2022-12-04T15:01:12.211Z,100319
2022-12-04T15:07:33.262Z,100316
2022-12-04T15:13:26.292Z,100320
2022-12-04T15:19:27.847Z,100327
2022-12-04T15:26:10.017Z,100330
2022-12-04T15:32:20.149Z,100329
2022-12-04T15:38:26.077Z,100325
2022-12-04T15:44:34.021Z,100327
2022-12-04T15:50:57.608Z,100329
2022-12-04T15:57:23.471Z,100328
2022-12-04T16:03:36.771Z,100330
2022-12-04T16:09:39.741Z,100340
2022-12-04T16:36:27.688Z,100364
2022-12-04T16:42:20.740Z,100363
2022-12-04T16:48:12.192Z,100372
2022-12-04T16:54:06.376Z,100366
2022-12-04T17:00:03.560Z,100361
2022-12-04T17:06:01.593Z,100365
2022-12-04T17:11:52.396Z,100376
2022-12-04T17:17:42.712Z,100368
2022-12-04T17:23:34.375Z,100369
2022-12-04T17:29:33.603Z,100365
2022-12-04T17:42:00.028Z,100370
2022-12-04T17:48:12.458Z,100368
2022-12-04T17:54:17.257Z,100367
2022-12-04T18:00:22.848Z,100367
2022-12-04T18:12:59.738Z,100355
2022-12-04T18:19:38.449Z,100350
2022-12-04T18:31:46.538Z,100348
2022-12-04T18:51:13.544Z,100350
2022-12-04T19:04:10.143Z,100352
2022-12-04T19:10:18.349Z,100355
2022-12-04T19:16:25.052Z,100361
2022-12-04T19:28:40.354Z,100359
2022-12-04T19:34:56.033Z,100357
2022-12-04T19:40:59.135Z,100346
2022-12-04T19:52:49.322Z,100347
2022-12-04T19:58:59.091Z,100349
2022-12-04T20:04:52.098Z,100345
2022-12-04T20:11:21.529Z,100351
2022-12-04T20:17:38.433Z,100343
2022-12-04T20:24:07.560Z,100330
2022-12-04T20:30:13.007Z,100319
2022-12-04T20:36:14.043Z,100307
2022-12-04T20:42:16.294Z,100328
2022-12-04T20:48:14.156Z,100338
2022-12-04T20:54:22.417Z,100355
2022-12-04T21:00:15.146Z,100369
2022-12-04T21:06:12.837Z,100373
2022-12-04T21:12:04.889Z,100384
2022-12-04T21:18:16.337Z,100394
2022-12-04T21:24:32.636Z,100393
2022-12-04T21:30:46.580Z,100393
2022-12-04T21:37:05.913Z,100396
2022-12-04T21:43:09.566Z,100396
2022-12-04T21:49:06.658Z,100396
2022-12-04T21:54:57.509Z,100393
2022-12-04T22:00:49.545Z,100394
2022-12-04T22:06:42.184Z,100396
2022-12-04T22:12:53.487Z,100396
2022-12-04T22:18:52.865Z,100401
2022-12-04T22:24:48.058Z,100404
2022-12-04T22:30:44.416Z,100402
2022-12-04T22:36:43.486Z,100407
2022-12-04T22:42:44.559Z,100408
2022-12-04T22:48:43.335Z,100402
2022-12-04T22:54:36.185Z,100399
2022-12-04T23:00:40.705Z,100400
2022-12-04T23:06:38.995Z,100393
2022-12-04T23:12:50.602Z,100401
2022-12-04T23:18:41.179Z,100401
2022-12-04T23:24:32.596Z,100397
2022-12-04T23:30:53.145Z,100397
2022-12-04T23:36:59.696Z,100400
2022-12-04T23:43:06.827Z,100402
2022-12-04T23:49:11.883Z,100400
2022-12-04T23:55:20.694Z,100396
